Time;durP1;ratioP1;P1;durP2;ratioP2;P2;SDS_P1;SDS_P2;PMS_P1;PMS_P2;Temp;Humidity;BMP_temperature;BMP_pressure;BME280_temperature;BME280_humidity;BME280_pressure;Samples;Min_cycle;Max_cycle;Signal;HPM_P1;HPM_P2
2021/04/03 00:00:45;;;;;;;;;;;;;;;2.52;76.02;98706.89;1756846;81;22290;-63
2021/04/03 00:03:15;;;;;;;;;;;;;;;2.54;76.12;98710.72;1756709;81;20261;-63
2021/04/03 00:05:42;;;;;;;;;;;;;;;2.58;76.03;98713.63;1756805;81;20511;-62
2021/04/03 00:08:10;;;;;;;;;;;;;;;2.61;75.91;98718.23;1756724;81;20220;-62
2021/04/03 00:10:43;;;;;;;;;;;;;;;2.66;75.80;98715.13;1756719;81;20228;-62
2021/04/03 00:13:10;;;;;;;;;;;;;;;2.67;75.67;98710.84;1756753;81;21200;-63
2021/04/03 00:15:37;;;;;;;;;;;;;;;2.68;75.57;98713.81;1756674;81;20221;-62
2021/04/03 00:18:05;;;;;;;;;;;;;;;2.68;75.45;98709.97;1756715;81;20241;-63
2021/04/03 00:20:34;;;;;;;;;;;;;;;2.66;75.28;98713.00;1756732;81;20232;-64
2021/04/03 00:23:03;;;;;;;;;;;;;;;2.64;75.24;98710.91;1756718;81;20507;-63
2021/04/03 00:25:31;;;;;;;;;;;;;;;2.62;75.27;98707.52;1756725;81;21332;-63
2021/04/03 00:27:58;;;;;;;;;;;;;;;2.61;75.38;98706.68;1756666;81;20225;-63
2021/04/03 00:30:26;;;;;;;;;;;;;;;2.59;75.32;98714.03;1758580;81;20275;-63
2021/04/03 00:32:55;;;;;;;;;;;;;;;2.55;75.28;98705.98;1761023;81;20220;-62
2021/04/03 00:35:24;;;;;;;;;;;;;;;2.49;75.41;98708.23;1761042;81;20677;-62
2021/04/03 00:37:52;;;;;;;;;;;;;;;2.45;75.41;98710.45;1761008;81;21202;-63
2021/04/03 00:40:40;;;;;;;;;;;;;;;2.38;75.37;98707.19;1761004;81;20223;-64
2021/04/03 00:43:22;;;;;;;;;;;;;;;2.33;75.55;98707.72;1761063;81;20228;-64
2021/04/03 00:45:49;;;;;;;;;;;;;;;2.29;75.66;98712.94;1761059;80;20696;-64
2021/04/03 00:48:17;;;;;;;;;;;;;;;2.24;75.86;98699.34;1761116;81;20579;-64
2021/04/03 00:50:47;;;;;;;;;;;;;;;2.22;75.98;98702.38;1761103;81;21212;-64
2021/04/03 00:53:16;;;;;;;;;;;;;;;2.19;76.12;98697.34;1732987;81;20221;-64
2021/04/03 00:55:46;;;;;;;;;;;;;;;2.14;76.13;98697.42;1761015;80;20233;-64
2021/04/03 00:58:15;;;;;;;;;;;;;;;2.07;76.20;98699.69;1733368;81;20241;-64
2021/04/03 01:00:46;;;;;;;;;;;;;;;2.01;76.16;98701.08;1761022;81;20502;-64
2021/04/03 01:03:14;;;;;;;;;;;;;;;1.93;76.22;98700.41;1761060;81;21374;-64
2021/04/03 01:05:42;;;;;;;;;;;;;;;1.88;76.53;98698.35;1760960;81;20208;-63
2021/04/03 01:08:15;;;;;;;;;;;;;;;1.82;76.62;98691.61;1761009;81;20220;-64
2021/04/03 01:10:45;;;;;;;;;;;;;;;1.80;76.85;98692.55;1760999;81;20220;-64
2021/04/03 01:13:34;;;;;;;;;;;;;;;1.77;77.00;98700.29;1709455;80;20249;-64
2021/04/03 01:16:29;;;;;;;;;;;;;;;1.73;77.20;98696.93;1761020;81;21269;-63
2021/04/03 01:19:26;;;;;;;;;;;;;;;1.69;77.20;98696.56;1760957;81;20220;-63
2021/04/03 01:22:19;;;;;;;;;;;;;;;1.64;77.23;98699.20;1760849;81;20221;-63
2021/04/03 01:25:14;;;;;;;;;;;;;;;1.59;77.41;98695.91;1760995;80;20248;-64
2021/04/03 01:27:48;;;;;;;;;;;;;;;1.57;77.57;98694.23;1760969;81;20496;-64
2021/04/03 01:30:18;;;;;;;;;;;;;;;1.51;77.56;98702.88;1759293;81;21397;-64
2021/04/03 01:33:08;;;;;;;;;;;;;;;1.45;77.57;98704.25;1755822;81;21172;-64
2021/04/03 01:35:50;;;;;;;;;;;;;;;1.40;77.68;98694.97;1733529;81;20232;-64
2021/04/03 01:38:40;;;;;;;;;;;;;;;1.37;77.66;98699.70;1756718;81;21038;-64
2021/04/03 01:41:10;;;;;;;;;;;;;;;1.34;77.90;98693.35;1750143;81;20220;-64
2021/04/03 01:43:41;;;;;;;;;;;;;;;1.34;78.04;98700.60;1756613;81;21199;-62
2021/04/03 01:46:09;;;;;;;;;;;;;;;1.31;78.06;98692.96;1756548;80;20233;-64
2021/04/03 01:48:38;;;;;;;;;;;;;;;1.28;77.94;98696.00;1756724;81;20241;-64
2021/04/03 01:51:06;;;;;;;;;;;;;;;1.24;78.05;98704.60;1756690;81;20259;-64
2021/04/03 01:53:33;;;;;;;;;;;;;;;1.22;78.19;98707.63;1756694;81;20240;-64
2021/04/03 01:56:05;;;;;;;;;;;;;;;1.20;78.34;98708.92;1756756;81;21751;-64
2021/04/03 01:58:34;;;;;;;;;;;;;;;1.18;78.26;98714.53;1755795;81;20216;-64
2021/04/03 02:01:02;;;;;;;;;;;;;;;1.12;78.08;98721.45;1756633;81;20218;-62
2021/04/03 02:03:33;;;;;;;;;;;;;;;1.06;78.27;98722.39;1756645;81;20216;-63
2021/04/03 02:06:05;;;;;;;;;;;;;;;1.01;78.53;98716.05;1756669;81;20492;-62
2021/04/03 02:08:37;;;;;;;;;;;;;;;1.00;78.71;98721.19;1744109;81;21231;-62
2021/04/03 02:11:06;;;;;;;;;;;;;;;0.96;78.72;98733.66;1709669;81;20684;-62
2021/04/03 02:13:37;;;;;;;;;;;;;;;0.90;78.84;98731.17;1756626;81;20233;-63
2021/04/03 02:16:05;;;;;;;;;;;;;;;0.88;79.05;98729.91;1756635;81;20225;-62
2021/04/03 02:18:34;;;;;;;;;;;;;;;0.85;79.15;98731.23;1733235;81;20221;-62
2021/04/03 02:21:06;;;;;;;;;;;;;;;0.81;79.04;98728.73;1756704;81;22283;-62
2021/04/03 02:23:35;;;;;;;;;;;;;;;0.79;79.21;98720.26;1756616;81;20217;-62
2021/04/03 02:26:03;;;;;;;;;;;;;;;0.78;79.26;98719.41;1756555;81;20225;-62
2021/04/03 02:28:30;;;;;;;;;;;;;;;0.74;79.44;98719.03;1756600;81;21991;-62
2021/04/03 02:30:58;;;;;;;;;;;;;;;0.72;79.56;98723.77;1758327;81;20231;-62
2021/04/03 02:33:25;;;;;;;;;;;;;;;0.69;79.57;98717.81;1760953;81;21362;-64
2021/04/03 02:35:54;;;;;;;;;;;;;;;0.69;79.39;98716.97;1760871;81;20220;-64
2021/04/03 02:38:22;;;;;;;;;;;;;;;0.68;79.36;98717.83;1760909;81;20492;-64
2021/04/03 02:40:51;;;;;;;;;;;;;;;0.66;79.39;98710.17;1759271;81;20504;-64
2021/04/03 02:43:42;;;;;;;;;;;;;;;0.66;79.31;98713.16;1760971;81;20516;-64
2021/04/03 02:46:38;;;;;;;;;;;;;;;0.65;79.36;98715.31;1760906;80;21385;-64
2021/04/03 02:49:15;;;;;;;;;;;;;;;0.63;79.32;98715.33;1694577;81;20294;-64
2021/04/03 02:51:45;;;;;;;;;;;;;;;0.63;79.39;98711.92;1760952;81;20220;-64
2021/04/03 02:54:16;;;;;;;;;;;;;;;0.62;79.49;98711.51;1761034;81;20576;-64
2021/04/03 02:56:44;;;;;;;;;;;;;;;0.62;79.54;98711.08;1733393;81;20504;-64
2021/04/03 02:59:16;;;;;;;;;;;;;;;0.61;79.43;98709.38;1760913;81;21206;-64
2021/04/03 03:01:46;;;;;;;;;;;;;;;0.59;79.22;98707.73;1760552;81;20223;-64
2021/04/03 03:04:16;;;;;;;;;;;;;;;0.55;79.10;98718.88;1730531;81;20244;-64
2021/04/03 03:06:45;;;;;;;;;;;;;;;0.49;79.21;98721.51;1760873;81;20244;-64
2021/04/03 03:09:17;;;;;;;;;;;;;;;0.44;79.23;98711.33;1760955;81;20282;-64
2021/04/03 03:11:47;;;;;;;;;;;;;;;0.43;79.36;98713.90;1733323;81;21274;-64
2021/04/03 03:14:16;;;;;;;;;;;;;;;0.42;79.41;98711.77;1760899;81;20217;-64
2021/04/03 03:16:45;;;;;;;;;;;;;;;0.42;79.50;98709.65;1760923;81;20221;-64
2021/04/03 03:19:14;;;;;;;;;;;;;;;0.42;79.49;98705.37;1733695;81;20219;-64
2021/04/03 03:21:41;;;;;;;;;;;;;;;0.40;79.48;98709.66;1760923;81;20220;-61
2021/04/03 03:24:10;;;;;;;;;;;;;;;0.38;79.42;98709.30;1760930;81;22105;-64
2021/04/03 03:26:38;;;;;;;;;;;;;;;0.35;79.45;98705.06;1760777;81;20240;-64
2021/04/03 03:29:08;;;;;;;;;;;;;;;0.33;79.51;98708.08;1760884;81;20291;-64
2021/04/03 03:31:36;;;;;;;;;;;;;;;0.29;79.28;98702.14;1758147;81;20267;-64
2021/04/03 03:34:04;;;;;;;;;;;;;;;0.25;79.32;98695.38;1756630;81;20228;-64
2021/04/03 03:36:35;;;;;;;;;;;;;;;0.23;79.46;98699.66;1756593;81;21277;-64
2021/04/03 03:39:05;;;;;;;;;;;;;;;0.23;79.58;98694.97;1733294;81;20509;-64
2021/04/03 03:41:34;;;;;;;;;;;;;;;0.25;79.66;98703.47;1756689;81;20505;-64
2021/04/03 03:44:03;;;;;;;;;;;;;;;0.25;79.67;98690.25;1756621;81;20224;-64
2021/04/03 03:46:31;;;;;;;;;;;;;;;0.27;79.78;98685.13;1756545;80;20220;-64
2021/04/03 03:49:00;;;;;;;;;;;;;;;0.34;79.85;98676.08;1756717;81;22311;-64
2021/04/03 03:51:27;;;;;;;;;;;;;;;0.48;79.95;98680.16;1756514;81;20225;-64
2021/04/03 03:53:57;;;;;;;;;;;;;;;0.65;79.83;98684.60;1733744;81;20220;-64
2021/04/03 03:56:25;;;;;;;;;;;;;;;0.83;79.52;98682.20;1756591;81;20237;-64
2021/04/03 03:58:52;;;;;;;;;;;;;;;0.95;79.19;98689.72;1756635;81;20220;-63
2021/04/03 04:01:19;;;;;;;;;;;;;;;1.01;78.87;98683.20;1756675;81;22301;-62
2021/04/03 04:03:48;;;;;;;;;;;;;;;1.03;78.64;98681.03;1756580;81;20216;-62
2021/04/03 04:06:17;;;;;;;;;;;;;;;1.05;78.45;98686.12;1756620;81;20295;-63
2021/04/03 04:08:46;;;;;;;;;;;;;;;1.03;78.40;98687.86;1756685;81;20513;-63
2021/04/03 04:11:15;;;;;;;;;;;;;;;1.06;78.46;98689.53;1756567;81;20220;-63
2021/04/03 04:13:44;;;;;;;;;;;;;;;1.09;78.63;98690.34;1756689;81;22282;-63
2021/04/03 04:16:13;;;;;;;;;;;;;;;1.27;78.81;98688.75;1756545;81;20236;-63
2021/04/03 04:18:42;;;;;;;;;;;;;;;1.60;78.90;98683.47;1756555;81;20229;-63
2021/04/03 04:21:11;;;;;;;;;;;;;;;2.07;78.63;98679.17;1755968;80;20240;-63
2021/04/03 04:23:39;;;;;;;;;;;;;;;2.57;77.74;98676.00;1756595;81;20671;-63
2021/04/03 04:26:07;;;;;;;;;;;;;;;3.00;76.59;98674.55;1756580;81;21216;-63
2021/04/03 04:28:35;;;;;;;;;;;;;;;3.46;75.52;98679.42;1756547;81;20229;-64
2021/04/03 04:31:07;;;;;;;;;;;;;;;3.90;73.67;98680.83;1730238;80;20244;-63
2021/04/03 04:33:36;;;;;;;;;;;;;;;4.22;72.25;98680.36;1763218;81;20270;-64
2021/04/03 04:36:04;;;;;;;;;;;;;;;4.57;71.27;98680.20;1764664;81;20236;-64
2021/04/03 04:38:32;;;;;;;;;;;;;;;4.98;70.40;98687.11;1764771;81;22290;-64
2021/04/03 04:41:00;;;;;;;;;;;;;;;5.37;69.18;98684.98;1764571;81;20748;-64
2021/04/03 04:43:27;;;;;;;;;;;;;;;5.74;67.69;98676.84;1764599;81;20216;-64
2021/04/03 04:45:57;;;;;;;;;;;;;;;6.06;66.58;98677.02;1764714;80;20222;-64
2021/04/03 04:48:26;;;;;;;;;;;;;;;6.32;65.53;98671.77;1764341;81;20220;-64
2021/04/03 04:50:55;;;;;;;;;;;;;;;6.50;64.50;98675.40;1764094;81;22332;-64
2021/04/03 04:53:23;;;;;;;;;;;;;;;6.66;64.23;98676.95;1764740;81;20224;-64
2021/04/03 04:55:50;;;;;;;;;;;;;;;6.77;63.58;98668.34;1764881;81;20519;-64
2021/04/03 04:58:17;;;;;;;;;;;;;;;6.83;62.88;98670.22;1764730;81;20240;-64
2021/04/03 05:00:45;;;;;;;;;;;;;;;6.84;62.12;98669.32;1764803;81;20236;-64
2021/04/03 05:03:14;;;;;;;;;;;;;;;6.72;61.88;98681.44;1764780;81;21198;-64
2021/04/03 05:05:41;;;;;;;;;;;;;;;6.54;61.97;98679.56;1764715;81;20240;-64
2021/04/03 05:08:09;;;;;;;;;;;;;;;6.42;62.14;98685.16;1764743;81;20220;-64
2021/04/03 05:10:36;;;;;;;;;;;;;;;6.24;62.32;98687.98;1764717;81;20296;-64
2021/04/03 05:13:04;;;;;;;;;;;;;;;6.14;62.49;98687.48;1764812;81;20220;-64
2021/04/03 05:15:32;;;;;;;;;;;;;;;6.08;62.40;98686.41;1764759;81;21202;-64
2021/04/03 05:17:59;;;;;;;;;;;;;;;6.04;62.07;98683.53;1764725;81;20251;-64
2021/04/03 05:20:26;;;;;;;;;;;;;;;6.05;61.74;98690.37;1764749;81;20275;-64
2021/04/03 05:22:54;;;;;;;;;;;;;;;6.07;61.34;98694.20;1764747;81;20326;-64
2021/04/03 05:25:21;;;;;;;;;;;;;;;6.06;60.88;98696.39;1764770;81;20287;-64
2021/04/03 05:27:48;;;;;;;;;;;;;;;5.99;60.96;98693.20;1764733;81;21378;-64
2021/04/03 05:30:18;;;;;;;;;;;;;;;5.97;61.20;98695.44;1764629;81;20267;-64
2021/04/03 05:32:46;;;;;;;;;;;;;;;6.00;61.31;98700.02;1761739;81;20296;-64
2021/04/03 05:35:13;;;;;;;;;;;;;;;6.04;61.64;98703.34;1761057;81;20571;-64
2021/04/03 05:37:40;;;;;;;;;;;;;;;6.10;61.57;98709.14;1760961;81;20499;-64
2021/04/03 05:40:11;;;;;;;;;;;;;;;6.09;61.30;98707.89;1760986;81;22283;-64
2021/04/03 05:42:39;;;;;;;;;;;;;;;5.98;61.36;98705.71;1734193;81;20240;-64
2021/04/03 05:45:07;;;;;;;;;;;;;;;5.87;61.71;98709.06;1760956;81;20288;-64
2021/04/03 05:47:35;;;;;;;;;;;;;;;5.79;62.29;98710.63;1760907;80;20220;-64
2021/04/03 05:50:04;;;;;;;;;;;;;;;5.77;62.81;98718.03;1760947;81;20245;-64
2021/04/03 05:52:33;;;;;;;;;;;;;;;5.81;63.17;98720.87;1761044;81;22348;-64
2021/04/03 05:55:04;;;;;;;;;;;;;;;5.88;63.25;98726.23;1760904;81;20737;-64
2021/04/03 05:57:31;;;;;;;;;;;;;;;5.93;63.41;98724.38;1760993;81;20218;-64
2021/04/03 06:00:00;;;;;;;;;;;;;;;5.98;63.76;98726.36;1761010;81;20224;-64
2021/04/03 06:02:33;;;;;;;;;;;;;;;6.04;63.74;98723.55;1760973;81;20245;-64
2021/04/03 06:04:56;;;;;;;;;;;;;;;6.11;63.53;98731.48;1760313;81;22390;-64
2021/04/03 06:07:24;;;;;;;;;;;;;;;6.17;63.27;98720.09;1760834;81;20240;-64
2021/04/03 06:09:51;;;;;;;;;;;;;;;6.26;63.00;98721.49;1761033;81;20224;-64
2021/04/03 06:12:45;;;;;;;;;;;;;;;6.27;61.94;98725.77;1760905;81;20224;-64
2021/04/03 06:15:27;;;;;;;;;;;;;;;6.24;61.52;98722.84;1759356;81;20279;-65
2021/04/03 06:17:55;;;;;;;;;;;;;;;6.28;61.68;98726.16;1758039;81;20500;-64
2021/04/03 06:20:35;;;;;;;;;;;;;;;6.37;61.25;98729.72;1760862;81;20249;-64
2021/04/03 06:23:04;;;;;;;;;;;;;;;6.44;60.97;98733.73;1760945;81;20224;-64
2021/04/03 06:25:34;;;;;;;;;;;;;;;6.53;60.73;98734.70;1760870;81;20216;-65
2021/04/03 06:28:08;;;;;;;;;;;;;;;6.58;60.25;98736.68;1760177;81;20230;-65
2021/04/03 06:30:38;;;;;;;;;;;;;;;6.65;60.06;98743.28;1760994;81;21423;-64
2021/04/03 06:33:19;;;;;;;;;;;;;;;6.74;59.67;98744.70;1760849;80;20715;-64
2021/04/03 06:36:11;;;;;;;;;;;;;;;6.88;59.40;98743.72;1892891;76;20163;-64
2021/04/03 06:38:38;;;;;;;;;;;;;;;6.92;59.25;98750.46;1863764;77;20106;-63
2021/04/03 06:41:17;;;;;;;;;;;;;;;7.02;58.79;98748.34;1863703;77;22355;-63
2021/04/03 06:44:08;;;;;;;;;;;;;;;7.08;58.70;98744.25;1863798;77;20531;-64
2021/04/03 06:46:38;;;;;;;;;;;;;;;7.19;58.64;98746.79;1851342;77;20251;-63
2021/04/03 06:49:06;;;;;;;;;;;;;;;7.35;58.16;98757.84;1830053;78;20551;-64
2021/04/03 06:51:34;;;;;;;;;;;;;;;7.46;57.76;98758.25;1829929;78;20207;-64
2021/04/03 06:54:04;;;;;;;;;;;;;;;7.57;57.57;98754.80;1829905;78;22380;-64
2021/04/03 06:56:35;;;;;;;;;;;;;;;7.70;57.32;98755.97;1829893;78;20128;-63
2021/04/03 06:59:08;;;;;;;;;;;;;;;7.83;56.53;98754.55;1829932;78;20148;-63
2021/04/03 07:01:45;;;;;;;;;;;;;;;7.98;56.43;98754.83;1830017;78;20495;-63
2021/04/03 07:04:16;;;;;;;;;;;;;;;8.16;55.48;98752.75;1829945;78;20243;-63
2021/04/03 07:06:44;;;;;;;;;;;;;;;8.35;54.75;98761.44;1829384;78;21201;-64
2021/04/03 07:09:11;;;;;;;;;;;;;;;8.51;54.18;98757.70;1829856;78;20479;-63
2021/04/03 07:11:39;;;;;;;;;;;;;;;8.64;53.72;98754.95;1829890;78;20216;-63
2021/04/03 07:14:07;;;;;;;;;;;;;;;8.74;53.49;98760.12;1829829;78;20227;-63
2021/04/03 07:16:36;;;;;;;;;;;;;;;8.85;53.75;98762.20;1829863;78;20267;-63
2021/04/03 07:19:06;;;;;;;;;;;;;;;9.01;52.86;98754.56;1829870;78;21440;-63
2021/04/03 07:21:33;;;;;;;;;;;;;;;9.15;52.30;98762.56;1798109;78;20212;-64
2021/04/03 07:24:01;;;;;;;;;;;;;;;9.23;51.06;98759.13;1829846;78;20216;-64
2021/04/03 07:26:28;;;;;;;;;;;;;;;9.24;50.90;98756.47;1829887;78;20212;-64
2021/04/03 07:28:55;;;;;;;;;;;;;;;9.28;50.04;98761.05;1829934;78;20495;-64
2021/04/03 07:31:45;;;;;;;;;;;;;;;9.32;49.73;98768.63;1829868;78;21192;-65
2021/04/03 07:34:11;;;;;;;;;;;;;;;9.42;49.83;98775.96;1830286;78;20231;-65
2021/04/03 07:36:40;;;;;;;;;;;;;;;9.54;49.21;98787.08;1833351;78;20235;-63
2021/04/03 07:39:29;;;;;;;;;;;;;;;9.61;47.59;98798.83;1833340;78;20215;-63
2021/04/03 07:41:56;;;;;;;;;;;;;;;9.64;47.15;98810.37;1833330;78;20291;-63
2021/04/03 07:44:24;;;;;;;;;;;;;;;9.71;46.43;98779.77;1833373;78;21374;-63
2021/04/03 07:46:52;;;;;;;;;;;;;;;9.76;45.57;98773.89;1779387;78;20220;-63
2021/04/03 07:49:32;;;;;;;;;;;;;;;9.80;44.86;98777.54;1832779;78;20223;-63
2021/04/03 07:52:00;;;;;;;;;;;;;;;9.88;44.56;98779.31;1832802;78;20148;-65
2021/04/03 07:54:29;;;;;;;;;;;;;;;9.98;42.86;98780.55;1832719;78;20220;-63
2021/04/03 07:56:59;;;;;;;;;;;;;;;10.04;43.58;98770.29;1832817;78;22286;-63
2021/04/03 07:59:47;;;;;;;;;;;;;;;10.14;43.24;98771.52;1832691;78;20155;-64
2021/04/03 08:02:16;;;;;;;;;;;;;;;10.24;42.72;98766.71;1832792;78;20109;-64
2021/04/03 08:04:43;;;;;;;;;;;;;;;10.30;41.97;98769.84;1832765;78;20207;-64
2021/04/03 08:07:11;;;;;;;;;;;;;;;10.40;41.86;98771.95;1832782;78;20228;-63
2021/04/03 08:09:39;;;;;;;;;;;;;;;10.47;40.12;98775.93;1832731;78;21198;-64
2021/04/03 08:12:07;;;;;;;;;;;;;;;10.49;40.67;98775.39;1832620;78;20220;-63
2021/04/03 08:14:36;;;;;;;;;;;;;;;10.53;40.58;98771.27;1832679;78;20274;-64
2021/04/03 08:17:05;;;;;;;;;;;;;;;10.60;39.47;98772.59;1832690;78;20215;-64
2021/04/03 08:19:35;;;;;;;;;;;;;;;10.63;39.48;98775.50;1832826;78;20492;-64
2021/04/03 08:22:07;;;;;;;;;;;;;;;10.61;39.90;98775.58;1832701;78;21385;-64
2021/04/03 08:24:34;;;;;;;;;;;;;;;10.65;40.28;98778.41;1832665;78;20124;-64
2021/04/03 08:27:02;;;;;;;;;;;;;;;10.73;39.43;98776.71;1832693;78;20225;-64
2021/04/03 08:29:36;;;;;;;;;;;;;;;10.82;38.67;98777.97;1832664;78;20232;-64
2021/04/03 08:32:05;;;;;;;;;;;;;;;10.90;38.31;98779.25;1832759;78;20167;-64
2021/04/03 08:34:32;;;;;;;;;;;;;;;10.93;38.93;98768.68;1833519;78;21190;-64
2021/04/03 08:36:59;;;;;;;;;;;;;;;11.05;39.45;98769.77;1838287;78;20523;-62
2021/04/03 08:39:27;;;;;;;;;;;;;;;11.26;39.91;98780.77;1838211;78;20254;-63
2021/04/03 08:41:55;;;;;;;;;;;;;;;11.53;38.28;98777.09;1838281;78;20215;-63
2021/04/03 08:44:26;;;;;;;;;;;;;;;11.67;36.75;98785.80;1838252;78;20227;-63
2021/04/03 08:46:56;;;;;;;;;;;;;;;11.73;36.13;98778.11;1838289;76;22318;-63
2021/04/03 08:49:25;;;;;;;;;;;;;;;11.76;36.44;98773.20;1838269;78;20231;-64
2021/04/03 08:51:53;;;;;;;;;;;;;;;11.82;37.31;98774.16;1838272;78;20235;-63
2021/04/03 08:54:20;;;;;;;;;;;;;;;11.96;37.57;98763.34;1838288;78;20495;-63
2021/04/03 08:56:48;;;;;;;;;;;;;;;12.12;36.92;98769.78;1838225;78;20235;-64
2021/04/03 08:59:16;;;;;;;;;;;;;;;12.22;36.10;98770.91;1838216;78;21131;-64
2021/04/03 09:01:48;;;;;;;;;;;;;;;12.34;35.61;98775.88;1838122;78;20215;-63
2021/04/03 09:04:15;;;;;;;;;;;;;;;12.42;34.66;98780.15;1838274;78;20211;-64
2021/04/03 09:06:55;;;;;;;;;;;;;;;12.44;34.46;98773.08;1838224;78;20227;-62
2021/04/03 09:09:24;;;;;;;;;;;;;;;12.53;34.95;98775.61;1838383;78;20482;-64
2021/04/03 09:12:05;;;;;;;;;;;;;;;12.61;32.88;98771.59;1838221;78;21432;-64
2021/04/03 09:14:35;;;;;;;;;;;;;;;12.47;32.38;98770.75;1838153;78;20132;-64
2021/04/03 09:17:05;;;;;;;;;;;;;;;12.24;33.67;98770.81;1838245;78;20479;-63
2021/04/03 09:19:34;;;;;;;;;;;;;;;12.11;34.27;98774.63;1838287;78;20507;-63
2021/04/03 09:22:03;;;;;;;;;;;;;;;12.06;34.55;98768.83;1838114;78;20228;-63
2021/04/03 09:24:33;;;;;;;;;;;;;;;12.06;35.05;98771.44;1838225;78;21324;-64
2021/04/03 09:27:14;;;;;;;;;;;;;;;12.12;34.02;98763.27;1838165;78;20234;-64
2021/04/03 09:29:43;;;;;;;;;;;;;;;12.15;33.40;98772.22;1838298;78;20144;-62
2021/04/03 09:32:11;;;;;;;;;;;;;;;12.14;33.46;98767.09;1838210;78;20613;-64
2021/04/03 09:34:41;;;;;;;;;;;;;;;12.07;34.02;98769.20;1837617;78;20215;-63
2021/04/03 09:37:22;;;;;;;;;;;;;;;12.03;34.01;98764.63;1832691;78;21209;-64
2021/04/03 09:39:51;;;;;;;;;;;;;;;12.05;34.61;98756.73;1832702;78;20137;-64
2021/04/03 09:42:20;;;;;;;;;;;;;;;12.13;34.59;98748.47;1832859;78;20231;-64
2021/04/03 09:44:47;;;;;;;;;;;;;;;12.20;34.96;98753.20;1832772;78;20259;-63
2021/04/03 09:47:16;;;;;;;;;;;;;;;12.20;34.61;98753.20;1832727;77;20243;-64
2021/04/03 09:49:44;;;;;;;;;;;;;;;12.15;33.70;98751.83;1832610;78;21201;-64
2021/04/03 09:52:16;;;;;;;;;;;;;;;12.10;33.87;98756.47;1832704;78;20622;-63
2021/04/03 09:54:45;;;;;;;;;;;;;;;12.05;33.66;98755.42;1832648;78;20491;-64
2021/04/03 09:57:12;;;;;;;;;;;;;;;12.07;33.88;98752.27;1832745;78;20486;-64
2021/04/03 09:59:40;;;;;;;;;;;;;;;12.18;34.03;98755.56;1832631;78;20208;-64
2021/04/03 10:02:08;;;;;;;;;;;;;;;12.32;34.13;98749.89;1832545;78;21371;-63
2021/04/03 10:04:35;;;;;;;;;;;;;;;12.46;33.26;98749.05;1832548;78;20207;-63
2021/04/03 10:07:03;;;;;;;;;;;;;;;12.51;33.59;98747.01;1832678;78;20235;-64
2021/04/03 10:09:32;;;;;;;;;;;;;;;12.55;32.35;98748.51;1832595;78;20272;-63
2021/04/03 10:12:00;;;;;;;;;;;;;;;12.51;32.66;98747.47;1832704;78;20216;-63
2021/04/03 10:14:29;;;;;;;;;;;;;;;12.50;32.83;98744.49;1832587;78;20240;-64
2021/04/03 10:16:58;;;;;;;;;;;;;;;12.56;32.60;98745.43;1828850;78;20491;-64
2021/04/03 10:19:26;;;;;;;;;;;;;;;12.57;32.07;98746.64;1832623;78;20442;-63
2021/04/03 10:21:53;;;;;;;;;;;;;;;12.48;31.64;98743.74;1832644;78;20231;-63
2021/04/03 10:24:21;;;;;;;;;;;;;;;12.40;33.14;98741.58;1832662;78;20216;-64
2021/04/03 10:26:48;;;;;;;;;;;;;;;12.43;33.04;98742.25;1832621;78;21196;-64
2021/04/03 10:29:15;;;;;;;;;;;;;;;12.51;33.35;98739.65;1832583;78;20128;-65
2021/04/03 10:31:43;;;;;;;;;;;;;;;12.61;33.60;98744.66;1832614;78;20223;-64
2021/04/03 10:34:10;;;;;;;;;;;;;;;12.71;32.81;98747.94;1832629;78;20212;-63
2021/04/03 10:36:38;;;;;;;;;;;;;;;12.79;32.73;98747.44;1829807;78;20216;-64
2021/04/03 10:39:08;;;;;;;;;;;;;;;12.81;32.70;98744.27;1829192;78;21433;-64
2021/04/03 10:41:36;;;;;;;;;;;;;;;12.75;32.48;98750.73;1829065;78;20219;-63
2021/04/03 10:44:05;;;;;;;;;;;;;;;12.68;32.51;98744.67;1829105;78;20214;-62
2021/04/03 10:46:32;;;;;;;;;;;;;;;12.65;32.63;98738.33;1829156;77;20693;-63
2021/04/03 10:49:00;;;;;;;;;;;;;;;12.60;32.67;98742.98;1829165;78;20232;-63
2021/04/03 10:51:28;;;;;;;;;;;;;;;12.47;33.11;98739.45;1829120;78;21355;-62
2021/04/03 10:53:55;;;;;;;;;;;;;;;12.29;32.44;98747.92;1829070;78;20236;-63
2021/04/03 10:56:23;;;;;;;;;;;;;;;12.04;33.09;98743.31;1829058;78;20223;-64
2021/04/03 10:58:50;;;;;;;;;;;;;;;11.84;33.46;98748.86;1829139;78;20235;-64
2021/04/03 11:01:18;;;;;;;;;;;;;;;11.74;33.62;98749.84;1829121;78;20219;-64
2021/04/03 11:03:45;;;;;;;;;;;;;;;11.68;33.75;98749.72;1829138;78;21192;-63
2021/04/03 11:06:12;;;;;;;;;;;;;;;11.72;33.76;98739.50;1829154;78;20462;-64
2021/04/03 11:08:41;;;;;;;;;;;;;;;11.86;33.95;98745.70;1829090;78;20223;-63
2021/04/03 11:11:09;;;;;;;;;;;;;;;12.04;33.56;98751.14;1829082;78;20216;-63
2021/04/03 11:13:36;;;;;;;;;;;;;;;12.19;32.73;98748.92;1829143;78;20292;-64
2021/04/03 11:16:05;;;;;;;;;;;;;;;12.30;32.79;98747.84;1829089;78;21199;-65
2021/04/03 11:18:33;;;;;;;;;;;;;;;12.37;32.40;98743.94;1829056;78;20219;-63
2021/04/03 11:21:04;;;;;;;;;;;;;;;12.34;32.22;98749.80;1829147;78;20220;-63
2021/04/03 11:23:31;;;;;;;;;;;;;;;12.28;31.84;98754.06;1829265;78;20223;-64
2021/04/03 11:25:59;;;;;;;;;;;;;;;12.17;32.16;98747.36;1829314;78;20499;-63
2021/04/03 11:28:26;;;;;;;;;;;;;;;12.08;31.64;98740.91;1829305;78;21136;-63
2021/04/03 11:30:53;;;;;;;;;;;;;;;11.99;32.61;98746.19;1829230;78;20208;-63
2021/04/03 11:33:21;;;;;;;;;;;;;;;11.97;33.16;98745.93;1829286;78;20211;-64
2021/04/03 11:35:50;;;;;;;;;;;;;;;12.02;33.21;98745.17;1830119;78;20220;-64
2021/04/03 11:38:20;;;;;;;;;;;;;;;12.11;33.12;98739.90;1832790;78;20212;-64
2021/04/03 11:40:48;;;;;;;;;;;;;;;12.20;32.76;98744.55;1832775;78;21192;-64
2021/04/03 11:43:17;;;;;;;;;;;;;;;12.23;32.48;98736.09;1832730;78;20263;-62
2021/04/03 11:45:45;;;;;;;;;;;;;;;12.24;32.33;98736.46;1832777;78;20207;-63
2021/04/03 11:48:13;;;;;;;;;;;;;;;12.27;32.70;98742.80;1832758;77;20510;-63
2021/04/03 11:50:41;;;;;;;;;;;;;;;12.31;31.68;98748.21;1832753;78;20633;-63
2021/04/03 11:53:08;;;;;;;;;;;;;;;12.27;31.53;98746.70;1832774;78;21390;-64
2021/04/03 11:55:35;;;;;;;;;;;;;;;12.23;31.42;98740.00;1832763;78;20670;-63
2021/04/03 11:58:03;;;;;;;;;;;;;;;12.30;32.06;98741.78;1832834;78;20231;-63
2021/04/03 12:00:31;;;;;;;;;;;;;;;12.36;32.29;98737.52;1832712;78;20239;-63
2021/04/03 12:02:58;;;;;;;;;;;;;;;12.44;32.69;98737.87;1832733;78;20216;-64
2021/04/03 12:05:26;;;;;;;;;;;;;;;12.61;32.28;98735.06;1832737;78;21135;-63
2021/04/03 12:07:55;;;;;;;;;;;;;;;12.74;32.03;98726.03;1832724;78;20231;-63
2021/04/03 12:10:24;;;;;;;;;;;;;;;12.89;32.13;98718.55;1832735;78;20216;-64
2021/04/03 12:12:51;;;;;;;;;;;;;;;13.10;32.04;98723.72;1832824;78;20507;-65
2021/04/03 12:15:19;;;;;;;;;;;;;;;13.25;30.83;98725.01;1832704;78;20236;-64
2021/04/03 12:17:46;;;;;;;;;;;;;;;13.30;30.52;98723.78;1832727;78;21201;-64
2021/04/03 12:20:16;;;;;;;;;;;;;;;13.26;30.04;98724.91;1832689;78;20243;-63
2021/04/03 12:22:44;;;;;;;;;;;;;;;13.18;30.44;98719.36;1832747;78;20255;-64
2021/04/03 12:25:16;;;;;;;;;;;;;;;13.13;29.68;98724.00;1832745;78;20223;-63
2021/04/03 12:27:43;;;;;;;;;;;;;;;13.02;29.61;98720.75;1832889;78;20495;-64
2021/04/03 12:30:12;;;;;;;;;;;;;;;12.89;29.57;98721.63;1832712;78;21440;-63
2021/04/03 12:32:39;;;;;;;;;;;;;;;12.76;29.28;98722.88;1832663;78;20219;-64
2021/04/03 12:35:08;;;;;;;;;;;;;;;12.66;29.69;98726.50;1832701;78;20266;-64
2021/04/03 12:37:35;;;;;;;;;;;;;;;12.64;29.68;98731.44;1829570;78;20212;-64
2021/04/03 12:40:04;;;;;;;;;;;;;;;12.62;30.29;98727.61;1829240;78;20231;-63
2021/04/03 12:42:33;;;;;;;;;;;;;;;12.61;30.67;98729.84;1829239;78;22159;-64
2021/04/03 12:45:01;;;;;;;;;;;;;;;12.59;30.57;98726.98;1829170;78;20244;-64
2021/04/03 12:47:29;;;;;;;;;;;;;;;12.59;31.09;98729.59;1829192;77;20215;-64
2021/04/03 12:49:56;;;;;;;;;;;;;;;12.66;31.08;98722.58;1829305;78;20224;-63
2021/04/03 12:52:23;;;;;;;;;;;;;;;12.82;30.96;98713.33;1829233;78;20227;-64
2021/04/03 12:54:51;;;;;;;;;;;;;;;13.02;31.06;98714.69;1829188;78;21136;-63
2021/04/03 12:57:18;;;;;;;;;;;;;;;13.21;30.86;98719.61;1829118;78;20231;-63
2021/04/03 12:59:46;;;;;;;;;;;;;;;13.35;30.19;98707.83;1829231;78;20216;-64
2021/04/03 13:02:13;;;;;;;;;;;;;;;13.38;29.87;98706.33;1829227;78;20227;-64
2021/04/03 13:04:40;;;;;;;;;;;;;;;13.37;28.90;98711.18;1829210;78;20180;-65
2021/04/03 13:07:07;;;;;;;;;;;;;;;13.35;28.99;98713.89;1829210;78;21375;-62